Time;durP1;ratioP1;P1;durP2;ratioP2;P2;SDS_P1;SDS_P2;PMS_P1;PMS_P2;Temp;Humidity;BMP_temperature;BMP_pressure;BME280_temperature;BME280_humidity;BME280_pressure;Samples;Min_cycle;Max_cycle;Signal;HPM_P1;HPM_P2
2022/05/06 00:00:55;;;;;;;6.57;2.08;;;;;;;13.33;53.63;100398.94;3121227;28;20099;-69
2022/05/06 00:02:27;;;;;;;4.75;1.75;;;;;;;13.39;53.91;100413.50;3121258;28;20550;-69
2022/05/06 00:03:58;;;;;;;5.07;1.70;;;;;;;13.35;53.90;100415.41;3121111;28;20485;-69
2022/05/06 00:05:31;;;;;;;8.73;1.77;;;;;;;13.34;54.00;100413.75;3120739;28;20064;-69
2022/05/06 00:07:03;;;;;;;6.78;2.22;;;;;;;13.31;53.91;100416.50;3121506;28;20056;-69
2022/05/06 00:08:35;;;;;;;6.30;2.05;;;;;;;13.30;53.90;100412.16;3120848;28;20503;-69
2022/05/06 00:10:09;;;;;;;3.75;1.80;;;;;;;13.29;54.28;100414.88;3120693;28;20057;-70
2022/05/06 00:11:41;;;;;;;12.52;2.33;;;;;;;13.29;54.12;100420.94;3120991;28;20091;-69
2022/05/06 00:13:13;;;;;;;3.80;1.85;;;;;;;13.24;54.06;100422.88;3119994;28;20123;-69
2022/05/06 00:14:47;;;;;;;7.28;1.80;;;;;;;13.25;54.15;100419.41;3121120;28;20053;-69
2022/05/06 00:16:19;;;;;;;6.25;1.75;;;;;;;13.19;54.25;100409.16;3121188;28;20049;-69
2022/05/06 00:17:51;;;;;;;7.82;1.80;;;;;;;13.14;54.22;100411.16;3120856;28;20447;-69
2022/05/06 00:19:23;;;;;;;5.57;1.83;;;;;;;13.22;54.40;100419.47;3114460;28;20049;-69
2022/05/06 00:20:55;;;;;;;3.33;1.50;;;;;;;13.21;54.08;100423.03;3112245;28;20096;-68
2022/05/06 00:22:27;;;;;;;6.15;1.67;;;;;;;13.21;54.37;100423.03;3113505;28;20122;-68
2022/05/06 00:23:58;;;;;;;7.80;1.50;;;;;;;13.21;54.37;100417.78;3110608;28;20123;-68
2022/05/06 00:25:30;;;;;;;7.82;2.42;;;;;;;13.22;54.41;100424.72;3110950;28;20259;-68
2022/05/06 00:27:02;;;;;;;5.15;1.90;;;;;;;13.23;54.28;100426.44;3110834;28;20057;-68
2022/05/06 00:28:34;;;;;;;12.10;2.05;;;;;;;13.25;54.22;100429.84;3110626;28;20194;-68
2022/05/06 00:30:09;;;;;;;12.97;2.03;;;;;;;13.18;54.37;100416.16;3110644;28;20119;-68
2022/05/06 00:31:41;;;;;;;6.72;2.10;;;;;;;13.28;54.15;100434.94;3110713;28;20777;-69
2022/05/06 00:33:13;;;;;;;4.78;2.50;;;;;;;13.25;54.17;100427.25;3110555;28;20119;-70
2022/05/06 00:34:45;;;;;;;7.03;2.17;;;;;;;13.31;54.40;100439.16;3110531;28;20489;-68
2022/05/06 00:36:17;;;;;;;5.50;1.75;;;;;;;13.31;54.23;100440.03;3110692;28;20215;-68
2022/05/06 00:37:49;;;;;;;10.90;1.92;;;;;;;13.09;53.83;100400.06;3111646;28;20072;-67
2022/05/06 00:39:21;;;;;;;4.35;1.83;;;;;;;13.33;53.99;100440.78;3111145;28;20107;-67
2022/05/06 00:40:54;;;;;;;4.32;2.40;;;;;;;13.33;53.71;100440.78;3110407;28;20569;-68
2022/05/06 00:42:26;;;;;;;5.10;2.08;;;;;;;13.33;53.77;100442.56;3110417;28;20136;-68
2022/05/06 00:43:58;;;;;;;6.20;2.08;;;;;;;13.33;53.64;100437.34;3111338;28;20049;-67
2022/05/06 00:45:48;;;;;;;6.82;2.13;;;;;;;13.21;53.54;100412.56;3111060;28;20498;-69
2022/05/06 00:47:22;;;;;;;7.85;2.40;;;;;;;13.32;53.60;100425.19;3104842;28;20314;-68
2022/05/06 00:48:55;;;;;;;3.85;2.00;;;;;;;13.34;53.77;100433.78;3110851;28;20053;-68
2022/05/06 00:50:27;;;;;;;10.05;2.60;;;;;;;13.33;53.85;100427.72;3111044;28;20053;-68
2022/05/06 00:52:00;;;;;;;8.30;2.63;;;;;;;13.33;53.75;100434.72;3111348;28;20088;-68
2022/05/06 00:53:32;;;;;;;6.15;2.03;;;;;;;13.34;53.42;100439.91;3110615;28;20061;-68
2022/05/06 00:55:05;;;;;;;6.13;1.80;;;;;;;13.00;53.54;100390.88;3111535;28;20056;-68
2022/05/06 00:56:38;;;;;;;7.30;2.03;;;;;;;13.21;53.50;100418.63;3110544;28;20319;-67
2022/05/06 00:58:11;;;;;;;5.32;1.98;;;;;;;13.33;53.76;100440.78;3111608;28;20629;-67
2022/05/06 01:01:30;;;;;;;5.03;2.25;;;;;;;13.35;53.18;100435.50;3110809;28;20053;-68
2022/05/06 01:03:03;;;;;;;;;;;;;;;13.33;53.24;100437.34;3112014;28;20107;-68
2022/05/06 01:04:35;;;;;;;3.55;1.67;;;;;;;13.34;53.35;100439.03;3103918;28;20386;-68
2022/05/06 01:06:10;;;;;;;5.20;1.42;;;;;;;13.34;53.42;100439.03;3110928;28;20053;-67
2022/05/06 01:07:43;;;;;;;13.43;1.88;;;;;;;13.34;53.42;100445.13;3111399;28;20119;-67
2022/05/06 01:09:16;;;;;;;;;;;;;;;13.34;53.18;100441.63;3111941;28;20130;-69
2022/05/06 01:10:49;;;;;;;5.80;2.15;;;;;;;13.32;53.34;100446.97;3110553;28;19932;-66
2022/05/06 01:12:21;;;;;;;6.30;2.70;;;;;;;13.32;53.20;100452.19;3111527;28;20057;-67
2022/05/06 01:13:56;;;;;;;5.63;2.10;;;;;;;13.29;53.19;100439.25;3110966;28;20508;-67
2022/05/06 01:15:29;;;;;;;4.28;2.20;;;;;;;13.29;53.59;100441.03;3110384;28;20049;-68
2022/05/06 01:17:03;;;;;;;7.72;2.85;;;;;;;13.33;53.43;100446.03;3110944;28;20057;-69
2022/05/06 01:18:35;;;;;;;12.10;2.67;;;;;;;13.15;53.52;100415.47;3111600;28;20085;-67
2022/05/06 01:20:08;;;;;;;8.48;2.13;;;;;;;13.32;53.34;100446.97;3110909;28;20091;-67
2022/05/06 01:21:52;;;;;;;9.07;2.28;;;;;;;13.32;53.27;100451.34;3112448;28;20910;-68
2022/05/06 01:23:24;;;;;;;8.13;2.30;;;;;;;13.31;53.50;100450.50;3103597;28;20061;-68
2022/05/06 01:24:56;;;;;;;10.55;2.28;;;;;;;13.30;53.73;100456.63;3111077;28;20161;-68
2022/05/06 01:26:53;;;;;;;6.30;2.47;;;;;;;13.31;53.93;100447.00;3110249;28;20780;-68
2022/05/06 01:28:27;;;;;;;5.18;2.00;;;;;;;13.21;53.74;100430.88;3104580;28;20054;-68
2022/05/06 01:30:01;;;;;;;5.13;2.13;;;;;;;13.18;53.78;100428.41;3111068;28;20495;-68
2022/05/06 01:31:34;;;;;;;7.93;2.40;;;;;;;13.28;53.60;100434.94;3110976;28;20458;-69
2022/05/06 01:33:07;;;;;;;4.25;2.22;;;;;;;13.29;53.59;100441.03;3110766;28;20127;-70
2022/05/06 01:34:40;;;;;;;;;;;;;;;13.25;53.73;100442.94;3111762;28;20292;-67
2022/05/06 01:36:13;;;;;;;8.38;2.63;;;;;;;12.87;53.96;100387.97;3110764;28;20123;-69
2022/05/06 01:37:50;;;;;;;8.83;2.07;;;;;;;13.22;54.22;100445.63;3111315;28;20055;-69
2022/05/06 01:39:29;;;;;;;9.27;2.53;;;;;;;13.22;54.24;100445.63;3110210;28;20064;-68
2022/05/06 01:41:03;;;;;;;6.40;2.38;;;;;;;13.22;54.06;100443.00;3107982;28;20061;-71
2022/05/06 01:42:38;;;;;;;5.22;2.33;;;;;;;13.20;54.39;100434.41;3111038;28;20470;-71
2022/05/06 01:44:10;;;;;;;7.45;2.55;;;;;;;13.10;54.21;100426.16;3110837;28;20057;-72
2022/05/06 01:45:44;;;;;;;5.85;2.53;;;;;;;13.21;54.17;100438.72;3110991;28;20442;-71
2022/05/06 01:47:21;;;;;;;10.38;2.20;;;;;;;13.18;53.89;100436.25;3110977;28;20049;-70
2022/05/06 01:48:56;;;;;;;8.20;2.65;;;;;;;13.20;54.14;100440.47;3110819;28;20450;-70
2022/05/06 01:50:29;;;;;;;7.35;2.58;;;;;;;13.19;53.94;100435.31;3109819;28;20053;-70
2022/05/06 01:52:03;;;;;;;17.35;3.10;;;;;;;13.18;53.85;100431.84;3109664;28;20132;-69
2022/05/06 01:53:36;;;;;;;8.73;2.33;;;;;;;13.18;53.58;100439.69;3109210;28;20061;-69
2022/05/06 01:55:08;;;;;;;6.75;2.50;;;;;;;13.16;53.74;100430.22;3111159;28;20823;-69
2022/05/06 01:56:41;;;;;;;7.88;2.63;;;;;;;13.11;53.72;100427.00;3110770;28;20053;-70
2022/05/06 01:58:14;;;;;;;6.15;2.20;;;;;;;13.13;54.02;100430.38;3111401;28;20089;-70
2022/05/06 01:59:45;;;;;;;5.63;1.92;;;;;;;13.10;54.17;100428.75;3111080;28;20057;-69
2022/05/06 02:01:17;;;;;;;11.95;2.17;;;;;;;13.12;53.92;100428.69;3108309;28;20537;-69
2022/05/06 02:02:49;;;;;;;10.77;2.65;;;;;;;13.14;54.07;100432.09;3106142;28;20207;-70
2022/05/06 02:06:11;;;;;;;3.78;2.28;;;;;;;13.14;54.02;100430.31;3110808;28;20132;-70
2022/05/06 02:07:43;;;;;;;6.13;2.72;;;;;;;13.14;54.14;100427.69;3112195;28;20057;-70
2022/05/06 02:09:17;;;;;;;10.43;3.85;;;;;;;13.16;54.59;100435.44;3113584;28;20053;-69
2022/05/06 02:10:49;;;;;;;7.35;2.75;;;;;;;13.14;54.66;100432.09;3112495;28;20053;-69
2022/05/06 02:12:21;;;;;;;9.57;3.40;;;;;;;13.12;54.36;100433.91;3112112;28;20563;-69
2022/05/06 02:13:55;;;;;;;6.60;2.63;;;;;;;13.09;54.74;100423.59;3112469;28;20060;-68
2022/05/06 02:15:26;;;;;;;;;;;;;;;13.09;54.45;100432.28;3112574;28;20057;-67
2022/05/06 02:16:58;;;;;;;6.20;2.75;;;;;;;13.08;54.63;100430.59;3112936;28;19931;-68
2022/05/06 02:18:31;;;;;;;16.98;3.65;;;;;;;13.08;54.50;100435.81;3113501;28;20053;-68
2022/05/06 02:20:15;;;;;;;8.07;2.92;;;;;;;13.09;54.97;100444.50;3114680;28;20057;-68
2022/05/06 02:21:47;;;;;;;11.50;2.65;;;;;;;13.00;55.24;100431.84;3121673;28;20056;-68
2022/05/06 02:23:19;;;;;;;8.88;2.67;;;;;;;13.01;54.97;100434.38;3122288;28;20127;-69
2022/05/06 02:24:51;;;;;;;6.10;2.40;;;;;;;12.95;54.95;100427.69;3122492;28;20103;-68
2022/05/06 02:26:23;;;;;;;5.07;2.30;;;;;;;12.96;55.26;100428.53;3122364;28;20045;-69
2022/05/06 02:27:54;;;;;;;10.50;3.08;;;;;;;12.98;55.26;100434.53;3122130;28;20051;-69
2022/05/06 02:29:26;;;;;;;6.75;2.50;;;;;;;12.98;55.46;100440.63;3122296;28;20057;-68
2022/05/06 02:34:37;;;;;;;5.53;2.40;;;;;;;12.97;55.68;100445.91;3122292;28;20049;-67
2022/05/06 02:36:09;;;;;;;6.40;2.15;;;;;;;12.93;55.52;100433.91;3122202;28;20518;-67
2022/05/06 02:37:41;;;;;;;12.00;2.60;;;;;;;12.95;55.60;100439.88;3122142;28;20053;-66
2022/05/06 02:39:13;;;;;;;10.88;2.55;;;;;;;12.90;55.65;100431.44;3122332;28;20509;-68
2022/05/06 02:40:47;;;;;;;6.32;2.53;;;;;;;12.90;55.43;100439.28;3115978;28;20060;-68
2022/05/06 02:42:19;;;;;;;9.23;2.53;;;;;;;12.87;55.50;100439.41;3122069;28;20054;-68
2022/05/06 02:43:51;;;;;;;7.47;2.67;;;;;;;12.84;55.75;100439.53;3121864;28;20581;-67
2022/05/06 02:45:22;;;;;;;3.13;2.00;;;;;;;12.81;55.66;100435.28;3122262;28;20053;-67
2022/05/06 02:46:54;;;;;;;7.15;2.15;;;;;;;12.80;55.97;100443.19;3121877;28;20041;-68
2022/05/06 02:48:26;;;;;;;13.68;2.53;;;;;;;12.71;55.90;100428.75;3121832;28;20054;-68
2022/05/06 02:49:58;;;;;;;7.15;2.63;;;;;;;12.49;56.02;100403.56;3121959;28;20142;-68
2022/05/06 02:51:30;;;;;;;8.23;2.70;;;;;;;12.80;56.12;100441.41;3122076;28;20052;-68
2022/05/06 02:53:01;;;;;;;9.45;2.15;;;;;;;12.77;56.52;100446.78;3122220;28;20104;-68
2022/05/06 02:54:33;;;;;;;5.18;2.92;;;;;;;12.73;56.26;100435.63;3121698;28;20054;-69
2022/05/06 02:56:07;;;;;;;9.82;2.97;;;;;;;12.74;56.81;100439.06;3122158;28;20049;-69
2022/05/06 02:57:39;;;;;;;5.07;2.75;;;;;;;12.76;56.43;100447.72;3122191;28;20054;-68
2022/05/06 02:59:10;;;;;;;6.82;2.53;;;;;;;12.73;56.40;100450.47;3122028;28;20049;-68
2022/05/06 03:00:43;;;;;;;7.20;2.47;;;;;;;12.64;56.10;100438.63;3122017;28;20073;-68
2022/05/06 03:02:15;;;;;;;5.13;2.38;;;;;;;12.75;56.24;100448.63;3121990;28;20439;-69
2022/05/06 03:03:48;;;;;;;8.15;2.97;;;;;;;12.44;56.18;100400.31;3121979;28;20049;-69
2022/05/06 03:05:19;;;;;;;8.60;2.88;;;;;;;12.68;56.39;100431.50;3121997;28;20060;-69
2022/05/06 03:06:52;;;;;;;8.90;2.75;;;;;;;12.70;56.26;100435.75;3121642;28;20438;-69
2022/05/06 03:08:24;;;;;;;4.72;2.53;;;;;;;12.80;55.87;100448.41;3121853;28;20049;-69
2022/05/06 03:09:55;;;;;;;8.23;2.78;;;;;;;12.81;56.39;100457.94;3121951;28;20119;-68
2022/05/06 03:11:29;;;;;;;5.65;2.58;;;;;;;12.79;56.53;100458.03;3121752;28;20079;-69
2022/05/06 03:13:00;;;;;;;5.13;2.67;;;;;;;12.75;56.98;100454.72;3121851;28;20580;-69
2022/05/06 03:14:32;;;;;;;10.05;2.92;;;;;;;12.74;57.06;100450.38;3122147;28;20053;-69
2022/05/06 03:16:05;;;;;;;9.75;3.30;;;;;;;12.68;56.89;100439.34;3121500;28;20104;-69
2022/05/06 03:17:37;;;;;;;8.77;3.00;;;;;;;12.78;57.08;100458.06;3121697;28;20053;-69
2022/05/06 03:19:09;;;;;;;8.90;2.45;;;;;;;12.72;57.26;100461.84;3120780;28;20053;-69
2022/05/06 03:20:43;;;;;;;6.32;2.58;;;;;;;12.74;56.95;100466.06;3121823;28;20049;-69
2022/05/06 03:22:16;;;;;;;8.40;2.58;;;;;;;12.71;56.92;100465.34;3123732;28;20050;-69
2022/05/06 03:23:51;;;;;;;8.05;2.78;;;;;;;12.76;57.31;100466.00;3121464;28;20053;-70
2022/05/06 03:25:23;;;;;;;4.68;2.63;;;;;;;12.78;57.11;100472.03;3121650;28;20054;-71
2022/05/06 03:26:57;;;;;;;13.45;3.13;;;;;;;12.78;56.67;100468.53;3121909;28;20045;-70
2022/05/06 03:28:27;;;;;;;7.07;3.53;;;;;;;12.76;56.54;100460.78;3121856;28;20056;-70
2022/05/06 03:30:00;;;;;;;8.88;3.40;;;;;;;12.81;56.97;100476.25;3121581;28;20060;-70
2022/05/06 03:31:31;;;;;;;9.43;3.25;;;;;;;12.72;57.03;100467.06;3121336;28;20514;-70
2022/05/06 03:33:03;;;;;;;6.55;3.17;;;;;;;12.70;57.14;100463.66;3121796;28;20053;-70
2022/05/06 03:34:35;;;;;;;8.45;2.85;;;;;;;12.76;57.37;100466.00;3121565;28;20056;-70
2022/05/06 03:36:09;;;;;;;7.50;3.28;;;;;;;12.77;57.25;100469.47;3121442;28;20085;-70
2022/05/06 03:37:41;;;;;;;8.20;3.08;;;;;;;12.75;57.02;100466.94;3121547;28;20111;-70
2022/05/06 03:39:13;;;;;;;17.35;3.58;;;;;;;12.80;57.31;100470.16;3121860;28;20053;-70
2022/05/06 03:40:45;;;;;;;8.63;3.45;;;;;;;12.79;57.18;100470.25;3118261;28;20056;-70
2022/05/06 03:42:18;;;;;;;9.65;3.70;;;;;;;12.59;56.88;100435.38;3121389;28;20049;-70
2022/05/06 03:43:50;;;;;;;14.00;3.35;;;;;;;12.75;56.88;100474.78;3121216;28;20104;-71
2022/05/06 03:45:21;;;;;;;12.00;4.53;;;;;;;12.75;56.75;100482.63;3121523;28;20159;-71
2022/05/06 03:46:53;;;;;;;12.15;3.70;;;;;;;12.74;57.08;100481.75;3121522;28;20129;-74
2022/05/06 03:48:26;;;;;;;11.23;3.58;;;;;;;12.77;57.05;100485.16;3121423;28;20049;-71
2022/05/06 03:51:47;;;;;;;13.52;4.00;;;;;;;12.83;57.18;100485.72;3121184;28;20431;-70
2022/05/06 03:53:18;;;;;;;7.40;3.83;;;;;;;12.65;57.38;100452.53;3121461;28;20045;-71
2022/05/06 03:54:51;;;;;;;10.45;3.88;;;;;;;12.84;57.33;100487.44;3121632;28;20050;-71
2022/05/06 03:56:23;;;;;;;7.88;3.72;;;;;;;12.83;57.30;100485.72;3114578;28;20049;-71
2022/05/06 03:57:56;;;;;;;11.73;4.13;;;;;;;12.83;57.40;100485.72;3121348;28;20049;-70
2022/05/06 03:59:30;;;;;;;8.95;3.92;;;;;;;12.85;57.89;100491.75;3121024;28;20064;-69
2022/05/06 04:01:03;;;;;;;;;;;;;;;12.85;57.73;100488.28;3121847;28;20103;-70
2022/05/06 04:02:36;;;;;;;6.83;3.60;;;;;;;12.86;57.55;100493.44;3121134;28;19987;-70
2022/05/06 04:04:08;;;;;;;10.48;4.60;;;;;;;12.85;57.69;100499.56;3121056;28;20076;-69
2022/05/06 04:05:40;;;;;;;10.32;4.03;;;;;;;12.87;57.74;100494.31;3120943;28;20054;-69
2022/05/06 04:07:14;;;;;;;13.90;4.03;;;;;;;12.86;58.14;100488.19;3121183;28;20132;-69
2022/05/06 04:08:46;;;;;;;8.75;3.80;;;;;;;12.92;57.81;100501.00;3120983;28;20316;-70
2022/05/06 04:10:18;;;;;;;13.60;3.70;;;;;;;12.86;58.09;100482.13;3121243;28;20089;-69
2022/05/06 04:11:50;;;;;;;9.10;4.00;;;;;;;12.88;58.07;100488.16;3120930;28;20107;-68
2022/05/06 04:13:23;;;;;;;7.20;3.63;;;;;;;12.88;58.32;100493.38;3121088;28;20725;-68
2022/05/06 04:14:54;;;;;;;7.95;3.90;;;;;;;12.87;58.12;100495.13;3121366;28;20057;-67
2022/05/06 04:16:27;;;;;;;9.55;3.88;;;;;;;12.89;58.18;100490.69;3120863;28;20173;-67
2022/05/06 04:17:58;;;;;;;15.18;3.78;;;;;;;12.89;58.00;100484.59;3121115;28;20487;-68
2022/05/06 04:19:30;;;;;;;9.65;3.90;;;;;;;12.92;58.31;100481.84;3121091;28;20061;-69
2022/05/06 04:24:41;;;;;;;12.90;3.60;;;;;;;12.97;58.32;100488.59;3112309;28;20494;-70
2022/05/06 04:26:13;;;;;;;11.70;5.00;;;;;;;13.03;58.16;100504.91;3112230;28;20053;-68
2022/05/06 04:27:44;;;;;;;16.33;4.07;;;;;;;13.03;58.12;100502.31;3111957;28;20662;-68
2022/05/06 04:29:18;;;;;;;14.32;3.75;;;;;;;13.00;58.43;100494.59;3112294;28;20111;-67
2022/05/06 04:30:51;;;;;;;11.05;4.15;;;;;;;13.04;58.42;100499.59;3111828;28;20086;-68
2022/05/06 04:32:23;;;;;;;12.77;4.32;;;;;;;13.03;58.47;100502.31;3111818;28;20053;-68
2022/05/06 04:33:56;;;;;;;8.73;3.42;;;;;;;13.04;58.44;100496.16;3112029;28;20049;-68
2022/05/06 04:35:28;;;;;;;12.38;4.57;;;;;;;13.05;58.13;100497.88;3111187;28;20085;-68
2022/05/06 04:37:00;;;;;;;10.55;3.60;;;;;;;13.06;58.28;100489.09;3110969;28;20784;-67
2022/05/06 04:38:33;;;;;;;8.18;4.05;;;;;;;13.07;58.29;100496.00;3110507;28;20152;-67
2022/05/06 04:40:06;;;;;;;11.93;3.85;;;;;;;12.96;58.60;100478.22;3110472;28;20052;-70
2022/05/06 04:41:38;;;;;;;8.70;4.13;;;;;;;12.98;58.44;100487.69;3110687;28;20542;-67
2022/05/06 04:43:10;;;;;;;7.85;3.65;;;;;;;12.94;58.68;100490.50;3111805;28;20053;-69
2022/05/06 04:44:44;;;;;;;6.38;4.00;;;;;;;12.94;58.67;100483.50;3111453;28;20057;-69
2022/05/06 04:46:16;;;;;;;14.30;4.00;;;;;;;12.98;58.94;100492.03;3110728;28;20049;-69
2022/05/06 04:47:48;;;;;;;10.50;5.03;;;;;;;12.95;59.38;100493.06;3110749;28;20115;-68
2022/05/06 04:49:20;;;;;;;12.57;4.85;;;;;;;12.94;59.48;100496.56;3111579;28;20053;-69
2022/05/06 04:50:52;;;;;;;12.25;3.80;;;;;;;12.91;59.49;100491.47;3111741;28;20058;-69
2022/05/06 04:52:23;;;;;;;8.20;4.50;;;;;;;12.94;59.71;100499.16;3110831;28;20076;-69
2022/05/06 04:53:55;;;;;;;12.30;4.72;;;;;;;12.93;59.82;100507.94;3111992;28;20136;-70
2022/05/06 04:55:27;;;;;;;8.00;4.53;;;;;;;12.93;59.99;100499.25;3111549;28;20119;-68
2022/05/06 04:56:59;;;;;;;10.57;4.78;;;;;;;12.92;59.73;100503.63;3110317;28;20050;-69
2022/05/06 04:58:31;;;;;;;9.80;4.13;;;;;;;12.97;59.70;100509.50;3111398;28;20259;-69
2022/05/06 05:00:06;;;;;;;7.95;4.68;;;;;;;12.97;59.65;100513.88;3111091;28;20788;-69
2022/05/06 05:01:39;;;;;;;7.47;3.72;;;;;;;12.95;60.11;100513.97;3111530;28;20068;-70
2022/05/06 05:03:11;;;;;;;11.50;4.20;;;;;;;12.93;60.04;100510.56;3110856;28;20066;-68
2022/05/06 05:04:42;;;;;;;11.77;4.22;;;;;;;12.94;60.19;100509.63;3111255;28;20092;-70
2022/05/06 05:06:14;;;;;;;11.43;4.28;;;;;;;12.95;59.84;100511.34;3105422;28;20062;-70
2022/05/06 05:07:46;;;;;;;11.50;4.13;;;;;;;12.99;60.07;100514.69;3111617;28;20107;-69
2022/05/06 05:09:18;;;;;;;10.05;4.20;;;;;;;13.02;59.77;100511.09;3111178;28;20319;-69
2022/05/06 05:10:51;;;;;;;15.15;4.45;;;;;;;13.06;59.90;100510.03;3111172;28;20065;-69
2022/05/06 05:12:24;;;;;;;9.65;4.65;;;;;;;13.10;59.70;100512.44;3111481;28;20061;-70
2022/05/06 05:13:56;;;;;;;9.65;4.65;;;;;;;13.11;59.64;100510.66;3110413;28;20138;-68
2022/05/06 05:15:30;;;;;;;9.60;4.22;;;;;;;13.03;59.51;100510.16;3110741;28;20060;-70
2022/05/06 05:17:02;;;;;;;12.73;4.30;;;;;;;13.08;59.37;100516.03;3111041;28;20093;-69
2022/05/06 05:18:34;;;;;;;9.85;4.50;;;;;;;13.06;59.49;100520.47;3104769;28;20057;-70
2022/05/06 05:20:08;;;;;;;13.10;4.80;;;;;;;12.98;59.52;100502.50;3111135;28;20049;-72
2022/05/06 05:21:41;;;;;;;9.25;3.83;;;;;;;13.10;59.49;100512.44;3109814;28;20052;-73
2022/05/06 05:23:13;;;;;;;11.07;5.20;;;;;;;13.14;59.51;100516.59;3109002;28;20107;-74
2022/05/06 05:24:46;;;;;;;14.10;4.18;;;;;;;13.18;58.98;100519.94;3111075;28;20059;-71
2022/05/06 05:26:18;;;;;;;8.82;4.38;;;;;;;13.05;58.44;100497.88;3111056;28;20534;-74
2022/05/06 05:27:51;;;;;;;9.63;4.47;;;;;;;13.23;58.19;100531.03;3111338;28;20514;-69
2022/05/06 05:29:23;;;;;;;12.60;4.25;;;;;;;13.01;58.38;100478.00;3110623;28;20068;-69
2022/05/06 05:30:57;;;;;;;10.83;4.40;;;;;;;13.33;58.14;100521.03;3111094;28;20050;-69
2022/05/06 05:32:28;;;;;;;;;;;;;;;13.42;58.14;100520.63;3111010;28;20320;-71
2022/05/06 05:34:00;;;;;;;11.40;4.25;;;;;;;13.49;57.90;100524.69;3110882;28;19932;-71
2022/05/06 05:35:34;;;;;;;9.38;3.95;;;;;;;13.55;57.65;100520.94;3111233;28;20076;-68
2022/05/06 05:37:06;;;;;;;;;;;;;;;13.57;57.61;100525.16;3111901;28;20049;-67
2022/05/06 05:38:38;;;;;;;9.27;4.00;;;;;;;13.59;57.57;100528.56;3110539;28;19925;-70
2022/05/06 05:40:11;;;;;;;12.32;4.20;;;;;;;13.54;57.28;100511.38;3110422;28;20072;-78
2022/05/06 05:41:44;;;;;;;15.95;4.75;;;;;;;13.56;57.32;100513.00;3110334;28;20206;-81
2022/05/06 05:48:45;;;;;;;12.13;4.10;;;;;;;13.59;57.08;100510.22;3112927;28;20206;-74
2022/05/06 05:50:19;;;;;;;10.55;4.50;;;;;;;13.47;56.71;100489.03;3113376;28;20060;-73
2022/05/06 05:51:52;;;;;;;16.05;4.65;;;;;;;13.76;56.42;100525.16;3114499;28;20063;-77
2022/05/06 05:53:24;;;;;;;10.40;4.50;;;;;;;13.83;56.25;100528.34;3113231;28;20057;-79
2022/05/06 05:54:59;;;;;;;9.77;4.32;;;;;;;13.86;55.96;100523.78;3116817;28;20095;-69
2022/05/06 05:56:32;;;;;;;16.65;4.57;;;;;;;13.79;55.72;100504.06;3119773;28;20099;-73
2022/05/06 05:58:04;;;;;;;10.32;4.72;;;;;;;14.05;55.58;100533.38;3114627;28;20049;-70
2022/05/06 05:59:37;;;;;;;8.85;4.97;;;;;;;14.10;55.54;100529.63;3113075;28;20451;-73
2022/05/06 06:01:10;;;;;;;16.30;5.28;;;;;;;14.20;55.50;100532.69;3112948;28;20194;-71
2022/05/06 06:02:43;;;;;;;12.32;5.35;;;;;;;14.26;55.41;100534.16;3113253;28;20054;-76
2022/05/06 06:04:16;;;;;;;13.70;5.50;;;;;;;14.07;55.64;100492.28;3114015;28;20087;-73
2022/05/06 06:05:48;;;;;;;30.40;17.75;;;;;;;14.33;55.52;100539.00;3112842;28;20056;-73
2022/05/06 06:07:20;;;;;;;17.90;7.55;;;;;;;14.40;55.45;100534.31;3112872;28;20249;-73
2022/05/06 06:08:52;;;;;;;12.50;5.55;;;;;;;14.48;55.66;100542.63;3113341;28;20057;-71
2022/05/06 06:10:24;;;;;;;12.35;5.40;;;;;;;14.49;55.39;100533.88;3113184;28;20107;-72
2022/05/06 06:11:56;;;;;;;13.95;6.53;;;;;;;14.56;55.55;100537.06;3112819;28;20330;-71
2022/05/06 06:13:30;;;;;;;15.18;5.65;;;;;;;14.56;55.37;100535.28;3113209;28;20530;-71
2022/05/06 06:15:02;;;;;;;17.55;5.72;;;;;;;14.57;55.26;100512.53;3117650;28;20522;-75
2022/05/06 06:16:34;;;;;;;10.38;5.03;;;;;;;14.39;55.09;100474.97;3117542;28;20057;-79
2022/05/06 06:18:10;;;;;;;15.15;5.30;;;;;;;14.81;54.80;100531.41;3121790;28;20057;-75
2022/05/06 06:19:42;;;;;;;11.63;5.25;;;;;;;14.91;54.96;100529.19;3116708;28;20133;-73
2022/05/06 06:21:14;;;;;;;9.65;5.70;;;;;;;14.97;54.84;100534.13;3115699;28;20053;-75
2022/05/06 06:22:46;;;;;;;12.38;5.13;;;;;;;14.99;54.50;100527.84;3116441;28;20532;-68
2022/05/06 06:24:19;;;;;;;11.40;5.03;;;;;;;15.14;54.27;100530.59;3117775;28;20046;-74
2022/05/06 06:25:51;;;;;;;10.07;4.70;;;;;;;15.21;54.27;100522.34;3118650;28;20318;-73
2022/05/06 06:27:25;;;;;;;14.73;6.57;;;;;;;15.32;53.64;100529.66;3117100;28;20049;-67
2022/05/06 06:28:57;;;;;;;12.82;6.60;;;;;;;15.35;53.59;100512.88;3120772;28;20541;-71
2022/05/06 06:30:29;;;;;;;11.25;5.57;;;;;;;15.53;53.20;100527.66;3113852;28;20049;-69
2022/05/06 06:32:01;;;;;;;13.35;7.15;;;;;;;15.42;52.88;100495.88;3113911;28;20049;-69
2022/05/06 06:33:37;;;;;;;11.32;5.22;;;;;;;15.68;52.75;100526.00;3115092;28;20084;-71
2022/05/06 06:35:09;;;;;;;14.63;6.45;;;;;;;15.67;52.06;100521.63;3115111;28;20128;-73
2022/05/06 06:36:42;;;;;;;12.68;5.50;;;;;;;15.60;52.44;100501.91;3122210;28;20058;-78
2022/05/06 06:38:14;;;;;;;16.35;6.05;;;;;;;15.87;52.47;100528.44;3121720;28;20061;-75
2022/05/06 06:39:46;;;;;;;10.02;5.15;;;;;;;15.85;52.53;100502.28;3115790;28;20136;-78
2022/05/06 06:41:18;;;;;;;12.27;5.65;;;;;;;15.70;52.06;100479.47;3121804;28;20430;-72
2022/05/06 06:42:50;;;;;;;14.65;5.55;;;;;;;15.97;51.88;100521.72;3117312;28;20060;-71
2022/05/06 06:44:22;;;;;;;9.20;5.18;;;;;;;16.04;52.03;100511.75;3112917;28;20443;-67
2022/05/06 06:45:54;;;;;;;9.27;4.85;;;;;;;16.11;51.68;100506.03;3119059;28;20099;-69
2022/05/06 06:47:26;;;;;;;9.93;4.50;;;;;;;16.17;51.55;100504.84;3119498;28;20065;-69
2022/05/06 06:48:59;;;;;;;13.80;5.03;;;;;;;16.29;51.38;100501.50;3119159;28;20060;-69
2022/05/06 06:50:31;;;;;;;9.77;4.22;;;;;;;16.35;51.32;100514.28;3116481;28;20077;-70
2022/05/06 06:52:03;;;;;;;9.93;4.25;;;;;;;16.41;50.86;100513.09;3119273;28;20049;-69
2022/05/06 06:53:35;;;;;;;12.65;5.25;;;;;;;16.54;50.91;100513.25;3118530;28;20064;-68
2022/05/06 06:55:08;;;;;;;10.10;4.40;;;;;;;16.55;50.45;100510.50;3111474;28;20116;-73
2022/05/06 06:56:40;;;;;;;12.63;4.15;;;;;;;16.63;50.38;100511.88;3116115;28;20049;-71
2022/05/06 06:58:12;;;;;;;9.98;4.18;;;;;;;16.76;50.07;100515.47;3119819;28;20060;-73
2022/05/06 06:59:43;;;;;;;10.98;5.00;;;;;;;16.74;50.03;100496.25;3118605;28;20057;-74
2022/05/06 07:01:15;;;;;;;12.43;4.80;;;;;;;16.92;49.79;100510.13;3121237;28;21120;-70
2022/05/06 07:02:48;;;;;;;9.57;4.43;;;;;;;17.02;49.51;100514.75;3121281;28;20058;-72
2022/05/06 07:04:21;;;;;;;7.78;4.55;;;;;;;17.08;49.54;100496.91;3114197;28;21051;-70
2022/05/06 07:13:11;;;;;;;11.65;5.28;;;;;;;17.47;48.53;100504.13;3123519;28;20042;-79
2022/05/06 07:14:43;;;;;;;9.83;5.63;;;;;;;17.35;48.17;100483.81;3121043;28;20053;-75
2022/05/06 07:16:14;;;;;;;11.07;4.97;;;;;;;17.48;48.25;100496.13;3121203;28;20107;-79
2022/05/06 07:17:49;;;;;;;12.15;5.75;;;;;;;17.48;48.08;100505.81;3121833;28;20045;-76
2022/05/06 07:19:23;;;;;;;10.93;5.40;;;;;;;17.45;48.30;100495.47;3120338;28;20136;-78
2022/05/06 07:20:55;;;;;;;11.57;6.30;;;;;;;17.51;48.25;100511.75;3121034;28;20103;-73
2022/05/06 07:22:27;;;;;;;23.88;10.27;;;;;;;17.52;48.38;100502.91;3118397;28;20171;-70
2022/05/06 07:24:00;;;;;;;11.88;6.82;;;;;;;17.62;48.31;100511.06;3120539;28;20050;-79
2022/05/06 07:25:36;;;;;;;16.38;5.85;;;;;;;17.65;48.18;100513.50;3119969;28;20062;-79
2022/05/06 07:27:08;;;;;;;9.35;5.75;;;;;;;17.56;48.31;100502.69;3118599;28;20054;-76
2022/05/06 07:28:40;;;;;;;13.17;5.73;;;;;;;17.68;48.35;100512.44;3121236;28;20060;-75
2022/05/06 07:30:13;;;;;;;13.63;6.28;;;;;;;17.47;48.25;100465.47;3121048;28;20760;-74
2022/05/06 07:31:47;;;;;;;17.75;6.03;;;;;;;17.88;48.42;100509.44;3121281;28;20506;-79
2022/05/06 07:33:20;;;;;;;12.50;5.57;;;;;;;17.70;48.15;100461.38;3120048;28;20055;-78
2022/05/06 07:34:53;;;;;;;10.73;5.68;;;;;;;17.95;48.16;100500.19;3120522;28;20294;-75
2022/05/06 07:36:26;;;;;;;10.13;6.03;;;;;;;17.93;48.13;100490.69;3116552;28;20077;-75